Time;durP1;ratioP1;P1;durP2;ratioP2;P2;SDS_P1;SDS_P2;PMS_P1;PMS_P2;Temp;Humidity;BMP_temperature;BMP_pressure;BME280_temperature;BME280_humidity;BME280_pressure;Samples;Min_cycle;Max_cycle;Signal;HPM_P1;HPM_P2
2022/09/27 00:01:54;;;;;;;10.07;1.07;;;;;;;;;;5031510;28;20175;-70
2022/09/27 00:04:20;;;;;;;9.77;1.20;;;;;;;;;;5028118;28;20243;-71
2022/09/27 00:06:45;;;;;;;7.23;1.10;;;;;;;;;;5043884;28;20274;-70
2022/09/27 00:09:11;;;;;;;7.30;1.10;;;;;;;;;;5032181;28;20704;-69
2022/09/27 00:11:38;;;;;;;8.03;1.37;;;;;;;;;;5028272;28;20622;-69
2022/09/27 00:14:05;;;;;;;9.13;1.10;;;;;;;;;;5042895;28;20196;-70
2022/09/27 00:16:34;;;;;;;10.27;1.00;;;;;;;;;;5034710;28;20276;-70
2022/09/27 00:19:02;;;;;;;7.53;1.63;;;;;;;;;;5027736;28;20186;-71
2022/09/27 00:21:29;;;;;;;8.30;0.90;;;;;;;;;;5031719;28;20189;-70
2022/09/27 00:23:56;;;;;;;13.30;1.93;;;;;;;;;;5040232;28;20276;-70
2022/09/27 00:26:21;;;;;;;3.43;1.00;;;;;;;;;;5041570;28;20260;-70
2022/09/27 00:28:47;;;;;;;6.53;1.07;;;;;;;;;;5027883;28;20897;-70
2022/09/27 00:31:28;;;;;;;7.83;1.33;;;;;;;;;;5027195;28;20677;-70
2022/09/27 00:33:55;;;;;;;3.53;0.73;;;;;;;;;;5041984;28;20200;-70
2022/09/27 00:36:22;;;;;;;4.27;1.00;;;;;;;;;;5034559;28;20182;-70
2022/09/27 00:38:48;;;;;;;5.97;0.97;;;;;;;;;;5043110;28;20602;-70
2022/09/27 00:41:23;;;;;;;5.47;1.27;;;;;;;;;;5029425;28;20513;-70
2022/09/27 00:43:52;;;;;;;5.13;0.93;;;;;;;;;;5032764;28;20530;-70
2022/09/27 00:46:25;;;;;;;8.67;1.43;;;;;;;;;;5042219;28;20190;-70
2022/09/27 00:49:05;;;;;;;6.47;1.17;;;;;;;;;;5033909;28;20206;-70
2022/09/27 00:51:33;;;;;;;8.60;1.43;;;;;;;;;;5026983;28;20814;-70
2022/09/27 00:53:59;;;;;;;10.43;1.10;;;;;;;;;;5029628;28;20261;-69
2022/09/27 00:56:29;;;;;;;9.07;1.03;;;;;;;;;;5041002;28;20228;-70
2022/09/27 00:59:01;;;;;;;3.67;0.83;;;;;;;;;;5036985;28;20280;-70
2022/09/27 01:01:29;;;;;;;7.73;1.07;;;;;;;;;;5040610;28;20177;-70
2022/09/27 01:04:06;;;;;;;6.33;0.60;;;;;;;;;;5039852;28;20509;-70
2022/09/27 01:06:32;;;;;;;3.63;0.70;;;;;;;;;;5034008;28;20268;-70
2022/09/27 01:08:57;;;;;;;6.13;1.00;;;;;;;;;;5043024;28;20284;-70
2022/09/27 01:11:44;;;;;;;3.30;1.33;;;;;;;;;;5032539;28;20185;-70
2022/09/27 01:14:18;;;;;;;5.43;0.80;;;;;;;;;;5034356;28;20193;-70
2022/09/27 01:16:48;;;;;;;3.57;0.43;;;;;;;;;;5045049;28;20181;-70
2022/09/27 01:19:25;;;;;;;1.63;0.40;;;;;;;;;;5036930;28;20333;-70
2022/09/27 01:22:10;;;;;;;0.90;0.40;;;;;;;;;;5037252;28;20226;-71
2022/09/27 01:25:18;;;;;;;3.23;0.70;;;;;;;;;;5038393;28;20277;-70
2022/09/27 01:28:10;;;;;;;4.57;0.57;;;;;;;;;;5042109;28;20599;-70
2022/09/27 01:30:42;;;;;;;6.03;0.67;;;;;;;;;;5036200;28;20280;-70
2022/09/27 01:33:14;;;;;;;6.80;1.03;;;;;;;;;;5036871;28;20220;-70
2022/09/27 01:35:49;;;;;;;4.10;0.50;;;;;;;;;;5037115;28;20216;-71
2022/09/27 01:38:41;;;;;;;3.13;0.63;;;;;;;;;;5034434;28;20189;-70
2022/09/27 01:41:31;;;;;;;4.90;0.60;;;;;;;;;;5040325;28;20257;-71
2022/09/27 01:44:29;;;;;;;5.03;0.60;;;;;;;;;;5034511;28;20186;-70
2022/09/27 01:46:58;;;;;;;3.77;0.60;;;;;;;;;;5042475;28;20201;-70
2022/09/27 01:49:31;;;;;;;4.63;0.50;;;;;;;;;;5036254;28;20635;-70
2022/09/27 01:52:04;;;;;;;3.93;0.80;;;;;;;;;;5034176;28;20189;-70
2022/09/27 01:54:46;;;;;;;5.27;0.70;;;;;;;;;;5032032;28;20200;-70
2022/09/27 01:57:18;;;;;;;4.83;0.80;;;;;;;;;;5039312;28;20624;-70
2022/09/27 01:59:48;;;;;;;4.50;0.50;;;;;;;;;;5039153;28;20321;-70
2022/09/27 02:02:17;;;;;;;6.83;0.70;;;;;;;;;;5038272;28;20196;-70
2022/09/27 02:04:46;;;;;;;3.40;0.67;;;;;;;;;;5036554;28;20190;-71
2022/09/27 02:07:26;;;;;;;3.73;0.70;;;;;;;;;;5038684;28;20186;-70
2022/09/27 02:10:00;;;;;;;4.70;0.90;;;;;;;;;;5032596;28;20345;-70
2022/09/27 02:12:31;;;;;;;6.17;0.80;;;;;;;;;;5034221;28;20788;-71
2022/09/27 02:15:10;;;;;;;5.43;0.73;;;;;;;;;;5029490;28;20251;-70
2022/09/27 02:17:58;;;;;;;4.87;0.67;;;;;;;;;;5040228;28;20185;-70
2022/09/27 02:20:34;;;;;;;3.07;0.70;;;;;;;;;;5029649;28;20277;-70
2022/09/27 02:23:09;;;;;;;6.07;0.90;;;;;;;;;;5038577;28;20192;-71
2022/09/27 02:25:48;;;;;;;7.47;0.90;;;;;;;;;;5036445;28;20271;-70
2022/09/27 02:28:23;;;;;;;3.80;0.63;;;;;;;;;;5034249;28;20296;-70
2022/09/27 02:30:49;;;;;;;8.10;1.00;;;;;;;;;;5049184;28;20203;-70
2022/09/27 02:33:15;;;;;;;6.63;1.00;;;;;;;;;;5043597;28;20209;-71
2022/09/27 02:35:40;;;;;;;7.53;0.80;;;;;;;;;;5035856;28;20201;-70
2022/09/27 02:38:06;;;;;;;7.73;1.00;;;;;;;;;;5038507;28;20638;-70
2022/09/27 02:40:34;;;;;;;6.17;0.70;;;;;;;;;;5043668;28;20645;-70
2022/09/27 02:43:03;;;;;;;6.13;1.03;;;;;;;;;;5031025;28;20626;-70
2022/09/27 02:45:40;;;;;;;5.53;1.00;;;;;;;;;;5029440;28;20199;-70
2022/09/27 02:48:17;;;;;;;5.07;1.00;;;;;;;;;;5034245;28;20293;-70
2022/09/27 02:51:15;;;;;;;6.50;0.70;;;;;;;;;;5040814;28;20547;-70
2022/09/27 02:54:03;;;;;;;6.90;0.87;;;;;;;;;;5033123;28;20931;-71
2022/09/27 02:56:58;;;;;;;5.00;0.60;;;;;;;;;;5034345;28;20239;-70
2022/09/27 02:59:50;;;;;;;6.27;1.07;;;;;;;;;;5038156;28;20214;-70
2022/09/27 03:02:21;;;;;;;4.07;0.90;;;;;;;;;;5039482;28;20186;-70
2022/09/27 03:04:58;;;;;;;8.27;0.60;;;;;;;;;;5036480;28;20356;-70
2022/09/27 03:07:24;;;;;;;4.33;0.60;;;;;;;;;;5035452;28;20314;-70
2022/09/27 03:09:51;;;;;;;2.73;0.70;;;;;;;;;;5041257;28;20647;-70
2022/09/27 03:12:21;;;;;;;5.77;0.90;;;;;;;;;;5043226;28;20264;-70
2022/09/27 03:14:48;;;;;;;2.17;0.47;;;;;;;;;;5037221;28;20246;-70
2022/09/27 03:17:13;;;;;;;2.10;0.37;;;;;;;;;;5033819;28;20427;-70
2022/09/27 03:19:39;;;;;;;9.23;0.50;;;;;;;;;;5029212;28;20285;-70
2022/09/27 03:22:04;;;;;;;4.87;0.83;;;;;;;;;;5032832;28;20500;-70
2022/09/27 03:24:29;;;;;;;3.70;0.40;;;;;;;;;;5048662;28;20193;-71
2022/09/27 03:26:55;;;;;;;4.30;0.40;;;;;;;;;;5044049;28;20174;-70
2022/09/27 03:29:20;;;;;;;4.13;0.40;;;;;;;;;;5034351;28;20279;-70
2022/09/27 03:31:45;;;;;;;4.90;0.40;;;;;;;;;;5037290;28;20206;-70
2022/09/27 03:34:11;;;;;;;6.60;0.40;;;;;;;;;;5029952;28;20197;-70
2022/09/27 03:36:36;;;;;;;3.00;0.50;;;;;;;;;;5044868;28;20200;-70
2022/09/27 03:39:01;;;;;;;9.17;0.60;;;;;;;;;;5035896;28;20186;-70
2022/09/27 03:41:26;;;;;;;5.30;0.63;;;;;;;;;;5040897;28;20223;-70
2022/09/27 03:43:53;;;;;;;5.57;0.63;;;;;;;;;;5043904;28;20197;-70
2022/09/27 03:46:18;;;;;;;4.47;0.67;;;;;;;;;;5035803;28;20201;-70
2022/09/27 03:48:44;;;;;;;3.20;0.40;;;;;;;;;;5037314;28;20214;-71
2022/09/27 03:51:11;;;;;;;5.67;0.80;;;;;;;;;;5037025;28;20685;-70
2022/09/27 03:53:36;;;;;;;5.30;0.50;;;;;;;;;;5038767;28;20268;-70
2022/09/27 03:56:01;;;;;;;4.67;0.50;;;;;;;;;;5031367;28;20320;-71
2022/09/27 03:58:27;;;;;;;4.87;0.43;;;;;;;;;;5029588;28;20406;-70
2022/09/27 04:00:52;;;;;;;3.50;0.43;;;;;;;;;;5036874;28;20220;-70
2022/09/27 04:03:18;;;;;;;3.20;0.53;;;;;;;;;;5037500;28;20193;-70
2022/09/27 04:05:44;;;;;;;4.17;0.57;;;;;;;;;;5033977;28;20316;-70
2022/09/27 04:08:10;;;;;;;3.23;0.50;;;;;;;;;;5039342;28;20268;-70
2022/09/27 04:10:36;;;;;;;4.03;0.50;;;;;;;;;;5047149;28;20177;-70
2022/09/27 04:13:01;;;;;;;6.13;0.57;;;;;;;;;;5037038;28;20194;-71
2022/09/27 04:15:27;;;;;;;5.13;0.67;;;;;;;;;;5036229;28;20275;-71
2022/09/27 04:17:52;;;;;;;5.27;0.70;;;;;;;;;;5040390;28;20191;-71
2022/09/27 04:20:17;;;;;;;4.03;0.60;;;;;;;;;;5034291;28;20197;-71
2022/09/27 04:22:44;;;;;;;6.87;0.57;;;;;;;;;;5037386;28;20182;-70
2022/09/27 04:25:09;;;;;;;3.17;0.70;;;;;;;;;;5026166;28;20218;-70
2022/09/27 04:27:35;;;;;;;5.67;0.70;;;;;;;;;;5030880;28;20733;-70
2022/09/27 04:30:00;;;;;;;5.87;1.10;;;;;;;;;;5033464;28;20233;-70
2022/09/27 04:32:26;;;;;;;6.07;0.83;;;;;;;;;;5039428;28;20622;-70
2022/09/27 04:37:35;;;;;;;3.67;0.80;;;;;;;;;;5045053;28;20220;-71
2022/09/27 04:40:02;;;;;;;3.40;0.90;;;;;;;;;;5045246;28;20173;-70
2022/09/27 04:42:27;;;;;;;5.50;0.70;;;;;;;;;;5038194;28;20184;-70
2022/09/27 04:44:53;;;;;;;2.63;0.70;;;;;;;;;;5029248;28;20561;-70
2022/09/27 04:47:19;;;;;;;5.63;0.80;;;;;;;;;;5030797;28;20319;-71
2022/09/27 04:49:46;;;;;;;3.83;0.87;;;;;;;;;;5030207;28;20206;-71
2022/09/27 04:52:11;;;;;;;4.83;1.10;;;;;;;;;;5027963;28;20358;-71
2022/09/27 04:54:37;;;;;;;4.40;1.27;;;;;;;;;;5032344;28;20292;-70
2022/09/27 04:57:02;;;;;;;5.37;0.70;;;;;;;;;;5031699;28;20202;-71
2022/09/27 04:59:28;;;;;;;7.40;0.97;;;;;;;;;;5030286;28;20183;-71
2022/09/27 05:01:54;;;;;;;5.33;0.70;;;;;;;;;;5025458;28;20197;-70
2022/09/27 05:04:19;;;;;;;6.17;0.77;;;;;;;;;;5030369;28;20188;-70
2022/09/27 05:06:44;;;;;;;6.67;0.93;;;;;;;;;;5029368;28;20638;-71
2022/09/27 05:09:10;;;;;;;5.10;0.70;;;;;;;;;;5025048;28;20225;-70
2022/09/27 05:11:36;;;;;;;7.17;1.33;;;;;;;;;;5038381;28;20190;-70
2022/09/27 05:14:03;;;;;;;7.10;1.13;;;;;;;;;;5030657;28;20608;-70
2022/09/27 05:16:28;;;;;;;4.93;1.10;;;;;;;;;;5025935;28;20212;-70
2022/09/27 05:18:54;;;;;;;6.53;1.13;;;;;;;;;;5029862;28;20616;-70
2022/09/27 05:21:19;;;;;;;6.20;0.90;;;;;;;;;;5033887;28;20526;-70
2022/09/27 05:23:44;;;;;;;5.87;1.30;;;;;;;;;;5030049;28;20424;-70
2022/09/27 05:26:10;;;;;;;5.47;1.63;;;;;;;;;;5025931;28;20541;-70
2022/09/27 05:28:36;;;;;;;6.10;1.57;;;;;;;;;;5037894;28;20211;-70
2022/09/27 05:31:01;;;;;;;7.70;1.27;;;;;;;;;;5036325;28;20536;-70
2022/09/27 05:33:27;;;;;;;8.83;1.90;;;;;;;;;;5034775;28;20459;-70
2022/09/27 05:35:56;;;;;;;6.30;2.23;;;;;;;;;;5040221;28;20189;-70
2022/09/27 05:38:22;;;;;;;6.77;1.00;;;;;;;;;;5026331;28;20617;-70
2022/09/27 05:40:49;;;;;;;4.23;0.97;;;;;;;;;;5044246;28;20178;-70
2022/09/27 05:43:15;;;;;;;5.67;1.20;;;;;;;;;;5035646;28;20533;-70
2022/09/27 05:45:42;;;;;;;11.30;1.37;;;;;;;;;;5031328;28;20231;-70
2022/09/27 05:48:07;;;;;;;4.37;1.30;;;;;;;;;;5034181;28;20178;-69
2022/09/27 05:50:33;;;;;;;6.10;1.40;;;;;;;;;;5029712;28;20209;-71
2022/09/27 05:52:58;;;;;;;7.40;1.80;;;;;;;;;;5033652;28;20185;-70
2022/09/27 05:55:24;;;;;;;9.20;2.27;;;;;;;;;;5039358;28;20181;-70
2022/09/27 05:58:04;;;;;;;9.87;1.77;;;;;;;;;;5034101;28;20190;-70
2022/09/27 06:00:30;;;;;;;7.57;1.53;;;;;;;;;;5035699;28;20410;-70
2022/09/27 06:02:57;;;;;;;7.37;1.23;;;;;;;;;;5035202;28;20202;-70
2022/09/27 06:05:24;;;;;;;7.20;1.50;;;;;;;;;;5038445;28;20173;-71
2022/09/27 06:07:51;;;;;;;8.60;1.23;;;;;;;;;;5039366;28;20264;-70
2022/09/27 06:10:18;;;;;;;9.03;1.20;;;;;;;;;;5035161;28;20197;-69
2022/09/27 06:12:44;;;;;;;12.40;1.87;;;;;;;;;;5045594;28;20415;-69
2022/09/27 06:15:10;;;;;;;9.80;1.50;;;;;;;;;;5030781;28;20656;-70
2022/09/27 06:17:36;;;;;;;5.47;1.00;;;;;;;;;;5029207;28;20178;-70
2022/09/27 06:20:02;;;;;;;10.40;1.67;;;;;;;;;;5034568;28;20169;-70
2022/09/27 06:22:27;;;;;;;6.83;1.20;;;;;;;;;;5035823;28;20185;-70
2022/09/27 06:24:52;;;;;;;6.90;1.33;;;;;;;;;;5031739;28;20207;-70
2022/09/27 06:27:18;;;;;;;6.20;1.20;;;;;;;;;;5044550;28;20671;-70
2022/09/27 06:29:43;;;;;;;5.10;1.20;;;;;;;;;;5043462;28;20768;-70
2022/09/27 06:32:09;;;;;;;8.70;1.37;;;;;;;;;;5043585;28;20252;-70
2022/09/27 06:34:35;;;;;;;6.90;1.20;;;;;;;;;;5028800;28;20190;-70
2022/09/27 06:37:00;;;;;;;9.57;1.60;;;;;;;;;;5032705;28;20284;-70
2022/09/27 06:39:26;;;;;;;11.73;1.97;;;;;;;;;;5034883;28;20189;-70
2022/09/27 06:41:58;;;;;;;7.97;1.03;;;;;;;;;;5028809;28;20205;-70
2022/09/27 06:44:24;;;;;;;9.70;1.47;;;;;;;;;;5030224;28;20265;-70
2022/09/27 06:46:52;;;;;;;5.50;1.30;;;;;;;;;;5035424;28;20914;-70
2022/09/27 06:49:18;;;;;;;11.23;1.70;;;;;;;;;;5045905;28;20677;-71
2022/09/27 06:51:44;;;;;;;5.97;1.27;;;;;;;;;;5039785;28;20182;-70
2022/09/27 06:54:09;;;;;;;4.37;1.73;;;;;;;;;;5027736;28;20239;-70
2022/09/27 06:56:35;;;;;;;7.05;1.20;;;;;;;;;;5048858;28;20592;-70
2022/09/27 07:01:44;;;;;;;3.87;1.00;;;;;;;;;;5029693;28;20336;-70
2022/09/27 07:04:10;;;;;;;6.00;1.40;;;;;;;;;;5029529;28;20651;-70
2022/09/27 07:06:36;;;;;;;5.17;1.00;;;;;;;;;;5032768;28;20184;-70
2022/09/27 07:09:02;;;;;;;7.20;1.23;;;;;;;;;;5032152;28;20202;-70
2022/09/27 07:11:27;;;;;;;7.30;1.38;;;;;;;;;;5041365;28;20334;-69
2022/09/27 07:13:53;;;;;;;5.15;1.10;;;;;;;;;;5031005;28;20178;-70
2022/09/27 07:16:19;;;;;;;6.60;0.93;;;;;;;;;;5036591;28;20243;-69
2022/09/27 07:18:47;;;;;;;7.37;1.30;;;;;;;;;;5032939;28;20186;-70
2022/09/27 07:21:14;;;;;;;7.68;1.50;;;;;;;;;;5047791;28;20638;-69
2022/09/27 07:23:40;;;;;;;6.67;1.10;;;;;;;;;;5047860;28;20185;-70
2022/09/27 07:26:07;;;;;;;5.23;1.10;;;;;;;;;;5038236;28;20181;-70
2022/09/27 07:28:33;;;;;;;5.65;1.05;;;;;;;;;;5039432;28;20217;-70
2022/09/27 07:30:59;;;;;;;6.13;1.30;;;;;;;;;;5047275;28;20391;-70
2022/09/27 07:33:25;;;;;;;4.28;1.00;;;;;;;;;;5045338;28;20217;-70
2022/09/27 07:35:50;;;;;;;8.00;1.10;;;;;;;;;;5044620;28;20181;-70
2022/09/27 07:38:16;;;;;;;3.37;1.03;;;;;;;;;;5048679;28;20593;-70
2022/09/27 07:40:42;;;;;;;6.28;1.52;;;;;;;;;;5037804;28;20279;-68
2022/09/27 07:43:08;;;;;;;7.87;1.23;;;;;;;;;;5032236;28;20185;-70
2022/09/27 07:45:34;;;;;;;4.03;0.90;;;;;;;;;;5034751;28;20193;-69
2022/09/27 07:47:59;;;;;;;13.70;1.50;;;;;;;;;;5032699;28;20189;-69
2022/09/27 07:50:25;;;;;;;6.27;1.30;;;;;;;;;;5040854;28;20200;-70
2022/09/27 07:52:50;;;;;;;6.73;1.33;;;;;;;;;;5034597;28;20232;-70
2022/09/27 07:55:17;;;;;;;8.95;1.60;;;;;;;;;;5034335;28;20231;-70
2022/09/27 07:57:45;;;;;;;9.03;1.47;;;;;;;;;;5032472;28;20230;-70
2022/09/27 08:00:14;;;;;;;5.85;1.20;;;;;;;;;;5032125;28;20206;-69
2022/09/27 08:02:43;;;;;;;6.03;1.02;;;;;;;;;;5037147;28;20219;-70
2022/09/27 08:05:10;;;;;;;9.77;1.50;;;;;;;;;;5032244;28;20178;-70
2022/09/27 08:07:37;;;;;;;6.50;0.98;;;;;;;;;;5047086;28;20197;-68
2022/09/27 08:10:03;;;;;;;8.77;1.33;;;;;;;;;;5034138;28;20209;-69
2022/09/27 08:12:28;;;;;;;7.50;1.13;;;;;;;;;;5046838;28;20186;-70
2022/09/27 08:14:57;;;;;;;8.40;1.23;;;;;;;;;;5036330;28;20233;-70
2022/09/27 08:17:22;;;;;;;2.67;1.08;;;;;;;;;;5045733;28;20184;-70
2022/09/27 08:19:48;;;;;;;5.32;0.93;;;;;;;;;;5037907;28;20178;-70
2022/09/27 08:22:15;;;;;;;4.30;1.02;;;;;;;;;;5028675;28;20545;-70
2022/09/27 08:24:40;;;;;;;5.32;1.23;;;;;;;;;;5032250;28;20527;-69
2022/09/27 08:27:06;;;;;;;6.88;1.20;;;;;;;;;;5038271;28;20219;-69
2022/09/27 08:29:34;;;;;;;4.53;0.98;;;;;;;;;;5033680;28;20237;-69
2022/09/27 08:31:59;;;;;;;4.68;0.90;;;;;;;;;;5036199;28;20244;-70
2022/09/27 08:34:25;;;;;;;5.68;0.80;;;;;;;;;;5040783;28;20190;-69
2022/09/27 08:36:50;;;;;;;2.25;0.80;;;;;;;;;;5040237;28;20196;-69
2022/09/27 08:39:15;;;;;;;4.60;1.05;;;;;;;;;;5043835;28;20232;-68
2022/09/27 08:41:51;;;;;;;9.07;1.00;;;;;;;;;;5027203;28;20178;-69
2022/09/27 08:44:23;;;;;;;5.88;1.00;;;;;;;;;;5025193;28;20232;-69
2022/09/27 08:46:52;;;;;;;6.25;0.90;;;;;;;;;;5036531;28;20193;-69
2022/09/27 08:49:30;;;;;;;3.28;0.50;;;;;;;;;;5030612;28;20209;-68
2022/09/27 08:51:57;;;;;;;3.22;0.70;;;;;;;;;;5038400;28;20185;-68
2022/09/27 08:54:28;;;;;;;3.13;0.70;;;;;;;;;;5046104;28;20737;-69
2022/09/27 08:57:02;;;;;;;4.38;0.82;;;;;;;;;;5037747;28;20178;-69
2022/09/27 08:59:34;;;;;;;6.47;0.80;;;;;;;;;;5030953;28;20201;-69
2022/09/27 09:02:00;;;;;;;6.13;1.00;;;;;;;;;;5030533;28;20196;-69
2022/09/27 09:04:33;;;;;;;4.88;0.80;;;;;;;;;;5038508;28;20547;-69
2022/09/27 09:07:33;;;;;;;4.97;1.27;;;;;;;;;;5043024;28;20184;-69
2022/09/27 09:13:33;;;;;;;5.25;0.73;;;;;;;;;;5027790;28;20220;-71
2022/09/27 09:16:27;;;;;;;3.08;0.60;;;;;;;;;;5027270;28;20189;-69
2022/09/27 09:19:15;;;;;;;6.53;0.80;;;;;;;;;;5030072;28;20229;-70
2022/09/27 09:22:17;;;;;;;2.97;0.52;;;;;;;;;;5036893;28;20226;-70
2022/09/27 09:24:50;;;;;;;2.60;0.65;;;;;;;;;;5032019;28;20528;-68
2022/09/27 09:27:22;;;;;;;3.97;0.60;;;;;;;;;;5044274;28;20185;-69
2022/09/27 09:30:07;;;;;;;2.30;0.82;;;;;;;;;;5031721;28;20233;-70
2022/09/27 09:32:53;;;;;;;2.55;0.70;;;;;;;;;;5047732;28;20204;-68
2022/09/27 09:35:24;;;;;;;2.65;0.55;;;;;;;;;;5039456;28;20193;-69
2022/09/27 09:37:56;;;;;;;3.97;0.60;;;;;;;;;;5045974;28;20198;-68
2022/09/27 09:40:28;;;;;;;4.55;0.60;;;;;;;;;;5031714;28;20205;-68
2022/09/27 09:43:24;;;;;;;2.00;0.57;;;;;;;;;;5030348;28;20211;-69
2022/09/27 09:46:26;;;;;;;1.80;0.50;;;;;;;;;;5045990;28;20181;-69
2022/09/27 09:49:03;;;;;;;1.98;0.40;;;;;;;;;;5030168;28;20213;-68
2022/09/27 09:51:35;;;;;;;2.22;0.30;;;;;;;;;;5037117;28;20189;-68
2022/09/27 09:54:20;;;;;;;2.35;0.40;;;;;;;;;;5050688;28;20541;-69
2022/09/27 09:57:04;;;;;;;3.10;0.50;;;;;;;;;;5040711;28;20244;-69
2022/09/27 09:59:41;;;;;;;2.17;0.30;;;;;;;;;;5044212;28;20266;-69
2022/09/27 10:02:20;;;;;;;2.03;0.30;;;;;;;;;;5040247;28;20185;-69
2022/09/27 10:04:45;;;;;;;2.40;0.45;;;;;;;;;;5048901;28;20199;-69
2022/09/27 10:07:11;;;;;;;2.50;0.65;;;;;;;;;;5045930;28;20273;-69
2022/09/27 10:09:37;;;;;;;1.23;0.22;;;;;;;;;;5034402;28;20283;-70
2022/09/27 10:12:03;;;;;;;0.90;0.25;;;;;;;;;;5032747;28;20186;-70
2022/09/27 10:14:29;;;;;;;1.92;0.25;;;;;;;;;;5036303;28;20185;-70
2022/09/27 10:16:58;;;;;;;1.95;0.40;;;;;;;;;;5040894;28;20281;-69
2022/09/27 10:19:30;;;;;;;4.97;0.38;;;;;;;;;;5034244;28;20178;-68
2022/09/27 10:22:01;;;;;;;3.55;0.40;;;;;;;;;;5043959;28;20189;-69
2022/09/27 10:24:26;;;;;;;2.53;0.27;;;;;;;;;;5042090;28;20217;-70
2022/09/27 10:26:57;;;;;;;2.55;0.57;;;;;;;;;;5031014;28;20210;-71
2022/09/27 10:29:35;;;;;;;1.58;0.40;;;;;;;;;;5028014;28;20233;-70
2022/09/27 10:32:03;;;;;;;3.30;0.38;;;;;;;;;;5030228;28;20206;-70
2022/09/27 10:34:36;;;;;;;2.80;0.57;;;;;;;;;;5027414;28;20599;-70
2022/09/27 10:37:16;;;;;;;4.85;0.70;;;;;;;;;;5042847;28;20353;-70
2022/09/27 10:39:45;;;;;;;3.60;0.68;;;;;;;;;;5030798;28;20178;-70
2022/09/27 10:42:30;;;;;;;2.30;0.43;;;;;;;;;;5030988;28;20190;-69
2022/09/27 10:44:55;;;;;;;2.55;0.60;;;;;;;;;;5038734;28;20541;-69
2022/09/27 10:47:25;;;;;;;2.28;0.63;;;;;;;;;;5047822;28;20184;-68
2022/09/27 10:49:51;;;;;;;3.05;0.60;;;;;;;;;;5036700;28;20254;-69
2022/09/27 10:52:22;;;;;;;2.63;0.57;;;;;;;;;;5050066;28;20276;-69
2022/09/27 10:54:58;;;;;;;1.90;0.55;;;;;;;;;;5035202;28;20212;-69
2022/09/27 10:57:27;;;;;;;4.38;0.52;;;;;;;;;;5043115;28;20196;-68
2022/09/27 10:59:55;;;;;;;2.85;0.22;;;;;;;;;;5048356;28;20181;-69
2022/09/27 11:02:31;;;;;;;1.08;0.30;;;;;;;;;;5042601;28;20184;-69
2022/09/27 11:05:05;;;;;;;1.95;0.40;;;;;;;;;;5035952;28;20201;-69
2022/09/27 11:07:30;;;;;;;0.70;0.35;;;;;;;;;;5036179;28;20186;-69
2022/09/27 11:10:01;;;;;;;0.70;0.25;;;;;;;;;;5036468;28;20563;-69
2022/09/27 11:12:29;;;;;;;1.60;0.30;;;;;;;;;;5032757;28;20294;-69
2022/09/27 11:15:02;;;;;;;2.65;0.25;;;;;;;;;;5029662;28;20186;-69
2022/09/27 11:17:33;;;;;;;0.90;0.40;;;;;;;;;;5037675;28;20535;-69
2022/09/27 11:20:17;;;;;;;4.22;0.93;;;;;;;;;;5048705;28;20196;-69
2022/09/27 11:22:45;;;;;;;2.05;0.40;;;;;;;;;;5034489;28;20216;-70
2022/09/27 11:25:38;;;;;;;3.60;0.50;;;;;;;;;;5040861;28;20268;-70
2022/09/27 11:28:47;;;;;;;3.83;0.57;;;;;;;;;;5033081;28;20193;-68
2022/09/27 11:31:38;;;;;;;2.13;0.32;;;;;;;;;;5039401;28;20189;-68
2022/09/27 11:34:20;;;;;;;2.42;0.57;;;;;;;;;;5036580;28;20291;-69
2022/09/27 11:37:04;;;;;;;1.85;0.30;;;;;;;;;;5044019;28;20201;-69
2022/09/27 11:39:47;;;;;;;2.38;0.30;;;;;;;;;;5047478;28;20181;-69
2022/09/27 11:42:34;;;;;;;0.15;0.03;;;;;;;;;;5035174;28;20186;-72
2022/09/27 11:45:34;;;;;;;1.85;0.10;;;;;;;;;;5036872;28;20177;-68
2022/09/27 11:48:07;;;;;;;3.17;0.20;;;;;;;;;;5020170;28;20218;-71
2022/09/27 11:50:55;;;;;;;0.08;0.00;;;;;;;;;;5032475;28;20212;-72
2022/09/27 11:53:44;;;;;;;1.02;0.20;;;;;;;;;;5032867;28;20260;-69
2022/09/27 11:56:22;;;;;;;2.42;0.13;;;;;;;;;;5046517;28;21524;-70
2022/09/27 11:59:02;;;;;;;1.60;0.30;;;;;;;;;;5031483;28;20178;-68
2022/09/27 12:01:54;;;;;;;0.33;0.10;;;;;;;;;;5037677;28;20181;-69
2022/09/27 12:04:19;;;;;;;1.77;0.30;;;;;;;;;;5032082;28;20174;-69
2022/09/27 12:07:02;;;;;;;2.03;0.23;;;;;;;;;;5027966;28;20216;-69
2022/09/27 12:09:33;;;;;;;0.67;0.10;;;;;;;;;;5036852;28;20208;-73
2022/09/27 12:12:07;;;;;;;1.70;0.17;;;;;;;;;;5032903;28;20767;-71
2022/09/27 12:14:42;;;;;;;3.13;0.40;;;;;;;;;;5040870;28;20208;-72
2022/09/27 12:17:16;;;;;;;2.37;0.37;;;;;;;;;;5032849;28;20267;-71
2022/09/27 12:19:49;;;;;;;2.22;0.50;;;;;;;;;;5042085;28;20179;-71
2022/09/27 12:22:20;;;;;;;1.10;0.37;;;;;;;;;;5035577;28;20209;-70
2022/09/27 12:24:46;;;;;;;2.78;0.50;;;;;;;;;;5036212;28;20186;-69
2022/09/27 12:27:17;;;;;;;3.13;0.60;;;;;;;;;;5029861;28;20230;-69
2022/09/27 12:29:46;;;;;;;3.78;0.80;;;;;;;;;;5042342;28;20649;-69
2022/09/27 12:32:19;;;;;;;1.70;0.40;;;;;;;;;;5030490;28;20713;-69
2022/09/27 12:35:05;;;;;;;1.10;0.55;;;;;;;;;;5039855;28;20182;-69
2022/09/27 12:37:41;;;;;;;0.95;0.38;;;;;;;;;;5026338;28;20178;-69
2022/09/27 12:40:30;;;;;;;1.65;0.70;;;;;;;;;;5025959;28;20184;-68
2022/09/27 12:43:05;;;;;;;2.35;0.47;;;;;;;;;;5025303;28;20292;-69
2022/09/27 12:45:51;;;;;;;3.13;0.40;;;;;;;;;;5032480;28;20237;-69
2022/09/27 12:48:34;;;;;;;2.33;0.47;;;;;;;;;;5033112;28;20185;-68
2022/09/27 12:51:09;;;;;;;3.13;0.30;;;;;;;;;;5035643;28;20284;-68
2022/09/27 12:53:56;;;;;;;1.88;0.30;;;;;;;;;;5039220;28;20376;-70
2022/09/27 12:56:34;;;;;;;3.28;0.50;;;;;;;;;;5030856;28;20188;-69
2022/09/27 12:59:45;;;;;;;3.58;0.52;;;;;;;;;;5037756;28;20653;-68
2022/09/27 13:02:43;;;;;;;1.30;0.25;;;;;;;;;;5025302;28;20577;-69
2022/09/27 13:05:40;;;;;;;2.28;0.30;;;;;;;;;;5033469;28;20213;-69
2022/09/27 13:08:43;;;;;;;2.85;0.60;;;;;;;;;;5031955;28;20217;-69
2022/09/27 13:11:24;;;;;;;2.85;0.70;;;;;;;;;;5031289;28;20239;-68
2022/09/27 13:13:55;;;;;;;1.80;0.30;;;;;;;;;;5038218;28;20204;-68
2022/09/27 13:16:20;;;;;;;1.95;0.30;;;;;;;;;;5032986;28;20264;-70
2022/09/27 13:18:53;;;;;;;1.35;0.20;;;;;;;;;;5032321;28;20589;-68
2022/09/27 13:21:50;;;;;;;3.55;0.50;;;;;;;;;;5032415;28;20190;-69
2022/09/27 13:24:46;;;;;;;3.25;0.60;;;;;;;;;;5035307;28;20546;-69
2022/09/27 13:27:26;;;;;;;1.90;0.40;;;;;;;;;;5031614;28;20337;-68
2022/09/27 13:30:06;;;;;;;1.15;0.30;;;;;;;;;;5040259;28;20232;-69
2022/09/27 13:32:32;;;;;;;2.42;0.38;;;;;;;;;;5037129;28;20197;-69
2022/09/27 13:35:19;;;;;;;1.88;0.40;;;;;;;;;;5032440;28;20188;-70
2022/09/27 13:37:58;;;;;;;2.67;0.57;;;;;;;;;;5030454;28;20177;-69
2022/09/27 13:40:23;;;;;;;4.32;0.77;;;;;;;;;;5040117;28;20212;-70
2022/09/27 13:43:20;;;;;;;2.33;0.60;;;;;;;;;;5036256;28;20181;-69
2022/09/27 13:46:04;;;;;;;3.90;0.90;;;;;;;;;;5033585;28;20174;-69
2022/09/27 13:48:40;;;;;;;2.50;0.68;;;;;;;;;;5035399;28;20182;-70
2022/09/27 13:51:24;;;;;;;1.67;0.50;;;;;;;;;;5038759;28;20189;-69
2022/09/27 13:53:59;;;;;;;1.40;0.60;;;;;;;;;;5036989;28;20268;-68
2022/09/27 13:56:39;;;;;;;1.67;0.50;;;;;;;;;;5029632;28;20185;-67
2022/09/27 13:59:12;;;;;;;2.92;0.63;;;;;;;;;;5028715;28;20253;-70
2022/09/27 14:01:40;;;;;;;1.00;0.57;;;;;;;;;;5032486;28;20530;-69
2022/09/27 14:04:28;;;;;;;3.72;0.47;;;;;;;;;;5028858;28;20600;-70
2022/09/27 14:06:59;;;;;;;1.50;0.38;;;;;;;;;;5029524;28;20967;-70
2022/09/27 14:09:34;;;;;;;3.75;0.50;;;;;;;;;;5029504;28;20528;-69
2022/09/27 14:12:03;;;;;;;1.60;0.60;;;;;;;;;;5031122;28;20579;-69
2022/09/27 14:14:31;;;;;;;1.55;0.30;;;;;;;;;;5028933;28;20181;-68
2022/09/27 14:17:01;;;;;;;2.60;0.50;;;;;;;;;;5028630;28;20748;-66
2022/09/27 14:19:27;;;;;;;3.28;0.70;;;;;;;;;;5028907;28;20193;-69
2022/09/27 14:21:54;;;;;;;2.78;0.45;;;;;;;;;;5030995;28;20650;-68
2022/09/27 14:24:29;;;;;;;2.50;0.60;;;;;;;;;;5028429;28;20175;-69
2022/09/27 14:27:18;;;;;;;2.63;0.40;;;;;;;;;;5031642;28;20193;-68
2022/09/27 14:30:09;;;;;;;1.15;0.43;;;;;;;;;;5030783;28;20237;-68
2022/09/27 14:32:49;;;;;;;1.02;0.40;;;;;;;;;;5026996;28;20566;-68
2022/09/27 14:38:04;;;;;;;2.95;0.40;;;;;;;;;;5034344;28;20224;-69
2022/09/27 14:40:35;;;;;;;3.05;0.50;;;;;;;;;;5033263;28;20275;-69
2022/09/27 14:43:00;;;;;;;2.70;0.40;;;;;;;;;;5033087;28;20189;-67
2022/09/27 14:45:39;;;;;;;2.78;0.60;;;;;;;;;;5031107;28;20178;-69
2022/09/27 14:48:21;;;;;;;1.90;0.50;;;;;;;;;;5030907;28;20562;-70
2022/09/27 14:51:14;;;;;;;4.13;1.10;;;;;;;;;;5035810;28;20221;-69
2022/09/27 14:53:45;;;;;;;2.80;0.57;;;;;;;;;;5027751;28;20190;-70
2022/09/27 14:56:18;;;;;;;1.65;0.60;;;;;;;;;;5028702;28;20364;-70
2022/09/27 14:58:45;;;;;;;3.20;0.43;;;;;;;;;;5031084;28;20182;-70
2022/09/27 15:01:18;;;;;;;2.33;0.47;;;;;;;;;;5040725;28;20720;-70
2022/09/27 15:03:47;;;;;;;2.92;0.47;;;;;;;;;;5031310;28;20802;-69
2022/09/27 15:06:13;;;;;;;1.95;0.60;;;;;;;;;;5033330;28;20190;-69
2022/09/27 15:08:39;;;;;;;1.33;0.45;;;;;;;;;;5031832;28;20178;-70
2022/09/27 15:11:06;;;;;;;1.35;0.38;;;;;;;;;;5031243;28;20409;-67
2022/09/27 15:13:33;;;;;;;1.10;0.40;;;;;;;;;;5027885;28;20236;-67
2022/09/27 15:15:59;;;;;;;1.42;0.40;;;;;;;;;;5029628;28;20182;-67
2022/09/27 15:18:28;;;;;;;2.40;0.60;;;;;;;;;;5029023;28;20189;-67
2022/09/27 15:20:53;;;;;;;4.72;0.47;;;;;;;;;;5027530;28;20201;-67
2022/09/27 15:23:26;;;;;;;1.77;0.60;;;;;;;;;;5028463;28;20638;-66
2022/09/27 15:26:07;;;;;;;3.47;1.05;;;;;;;;;;5025865;28;20190;-68